sensor_id;sensor_type;location;lat;lon;timestamp;P1;durP1;ratioP1;P2;durP2;ratioP2
22439;SDS011;11387;51.612;7.210;2023-07-24T00:00:16;7.88;;;4.20;;
22439;SDS011;11387;51.612;7.210;2023-07-24T00:02:45;7.95;;;4.88;;
22439;SDS011;11387;51.612;7.210;2023-07-24T00:05:15;8.63;;;4.80;;
22439;SDS011;11387;51.612;7.210;2023-07-24T00:07:44;7.03;;;3.90;;
22439;SDS011;11387;51.612;7.210;2023-07-24T00:10:13;9.52;;;4.28;;
22439;SDS011;11387;51.612;7.210;2023-07-24T00:12:41;10.77;;;4.85;;
22439;SDS011;11387;51.612;7.210;2023-07-24T00:15:10;9.15;;;4.60;;
22439;SDS011;11387;51.612;7.210;2023-07-24T00:17:53;9.13;;;4.95;;
22439;SDS011;11387;51.612;7.210;2023-07-24T00:20:23;5.80;;;4.38;;
22439;SDS011;11387;51.612;7.210;2023-07-24T00:22:53;7.97;;;4.85;;
22439;SDS011;11387;51.612;7.210;2023-07-24T00:25:25;9.02;;;4.50;;
22439;SDS011;11387;51.612;7.210;2023-07-24T00:27:54;9.15;;;5.07;;
22439;SDS011;11387;51.612;7.210;2023-07-24T00:30:23;7.03;;;4.55;;
22439;SDS011;11387;51.612;7.210;2023-07-24T00:32:52;8.93;;;5.07;;
22439;SDS011;11387;51.612;7.210;2023-07-24T00:35:20;10.50;;;5.20;;
22439;SDS011;11387;51.612;7.210;2023-07-24T00:37:51;13.07;;;5.18;;
22439;SDS011;11387;51.612;7.210;2023-07-24T00:40:19;9.75;;;5.10;;
22439;SDS011;11387;51.612;7.210;2023-07-24T00:42:48;8.93;;;4.13;;
22439;SDS011;11387;51.612;7.210;2023-07-24T00:45:17;10.05;;;4.85;;
22439;SDS011;11387;51.612;7.210;2023-07-24T00:47:45;11.27;;;4.88;;
22439;SDS011;11387;51.612;7.210;2023-07-24T00:50:14;8.32;;;4.78;;
22439;SDS011;11387;51.612;7.210;2023-07-24T00:52:43;10.18;;;5.85;;
22439;SDS011;11387;51.612;7.210;2023-07-24T00:55:14;11.68;;;5.28;;
22439;SDS011;11387;51.612;7.210;2023-07-24T00:57:58;8.48;;;5.13;;
22439;SDS011;11387;51.612;7.210;2023-07-24T01:00:28;8.95;;;5.18;;
22439;SDS011;11387;51.612;7.210;2023-07-24T01:02:57;6.60;;;4.90;;
22439;SDS011;11387;51.612;7.210;2023-07-24T01:05:42;9.52;;;5.22;;
22439;SDS011;11387;51.612;7.210;2023-07-24T01:08:11;8.77;;;5.60;;
22439;SDS011;11387;51.612;7.210;2023-07-24T01:10:41;11.13;;;5.05;;
22439;SDS011;11387;51.612;7.210;2023-07-24T01:13:13;11.27;;;5.28;;
22439;SDS011;11387;51.612;7.210;2023-07-24T01:15:46;10.73;;;6.10;;
22439;SDS011;11387;51.612;7.210;2023-07-24T01:18:19;11.30;;;5.00;;
22439;SDS011;11387;51.612;7.210;2023-07-24T01:20:53;7.93;;;4.90;;
22439;SDS011;11387;51.612;7.210;2023-07-24T01:23:30;11.35;;;5.07;;
22439;SDS011;11387;51.612;7.210;2023-07-24T01:26:10;8.45;;;5.18;;
22439;SDS011;11387;51.612;7.210;2023-07-24T01:28:40;13.23;;;5.53;;
22439;SDS011;11387;51.612;7.210;2023-07-24T01:31:09;10.40;;;5.40;;
22439;SDS011;11387;51.612;7.210;2023-07-24T01:33:37;12.10;;;5.13;;
22439;SDS011;11387;51.612;7.210;2023-07-24T01:36:13;10.77;;;5.10;;
22439;SDS011;11387;51.612;7.210;2023-07-24T01:38:43;11.75;;;5.30;;
22439;SDS011;11387;51.612;7.210;2023-07-24T01:41:13;11.50;;;5.47;;
22439;SDS011;11387;51.612;7.210;2023-07-24T01:43:42;10.25;;;5.75;;
22439;SDS011;11387;51.612;7.210;2023-07-24T01:46:12;7.63;;;4.20;;
22439;SDS011;11387;51.612;7.210;2023-07-24T01:48:41;10.48;;;5.45;;
22439;SDS011;11387;51.612;7.210;2023-07-24T01:51:09;10.88;;;5.38;;
22439;SDS011;11387;51.612;7.210;2023-07-24T01:53:38;21.23;;;5.72;;
22439;SDS011;11387;51.612;7.210;2023-07-24T01:56:07;12.73;;;5.72;;
22439;SDS011;11387;51.612;7.210;2023-07-24T01:58:37;11.95;;;6.10;;
22439;SDS011;11387;51.612;7.210;2023-07-24T02:01:20;12.15;;;5.88;;
22439;SDS011;11387;51.612;7.210;2023-07-24T02:03:48;16.08;;;5.75;;
22439;SDS011;11387;51.612;7.210;2023-07-24T02:06:17;9.82;;;5.38;;
22439;SDS011;11387;51.612;7.210;2023-07-24T02:08:46;12.43;;;6.53;;
22439;SDS011;11387;51.612;7.210;2023-07-24T02:11:16;12.88;;;5.95;;
22439;SDS011;11387;51.612;7.210;2023-07-24T02:13:48;11.30;;;5.80;;
22439;SDS011;11387;51.612;7.210;2023-07-24T02:16:17;16.77;;;6.50;;
22439;SDS011;11387;51.612;7.210;2023-07-24T02:18:46;12.15;;;6.32;;
22439;SDS011;11387;51.612;7.210;2023-07-24T02:21:15;11.93;;;6.63;;
22439;SDS011;11387;51.612;7.210;2023-07-24T02:23:44;12.70;;;6.03;;
22439;SDS011;11387;51.612;7.210;2023-07-24T02:26:13;10.90;;;6.60;;
22439;SDS011;11387;51.612;7.210;2023-07-24T02:28:41;13.25;;;6.47;;
22439;SDS011;11387;51.612;7.210;2023-07-24T02:31:11;12.63;;;6.07;;
22439;SDS011;11387;51.612;7.210;2023-07-24T02:33:41;15.88;;;6.72;;
22439;SDS011;11387;51.612;7.210;2023-07-24T02:36:10;10.35;;;6.55;;
22439;SDS011;11387;51.612;7.210;2023-07-24T02:38:38;14.00;;;5.85;;
22439;SDS011;11387;51.612;7.210;2023-07-24T02:41:07;10.15;;;6.47;;
22439;SDS011;11387;51.612;7.210;2023-07-24T02:43:36;11.40;;;6.57;;
22439;SDS011;11387;51.612;7.210;2023-07-24T02:46:04;12.43;;;7.03;;
22439;SDS011;11387;51.612;7.210;2023-07-24T02:48:34;10.57;;;6.57;;
22439;SDS011;11387;51.612;7.210;2023-07-24T02:51:03;15.98;;;6.75;;
22439;SDS011;11387;51.612;7.210;2023-07-24T02:53:31;12.60;;;6.32;;
22439;SDS011;11387;51.612;7.210;2023-07-24T02:56:00;13.55;;;6.10;;
22439;SDS011;11387;51.612;7.210;2023-07-24T02:58:29;11.90;;;6.07;;
22439;SDS011;11387;51.612;7.210;2023-07-24T03:01:02;10.38;;;5.85;;
22439;SDS011;11387;51.612;7.210;2023-07-24T03:03:33;13.95;;;6.13;;
22439;SDS011;11387;51.612;7.210;2023-07-24T03:06:03;11.50;;;5.38;;
22439;SDS011;11387;51.612;7.210;2023-07-24T03:08:32;11.82;;;6.15;;
22439;SDS011;11387;51.612;7.210;2023-07-24T03:11:00;12.63;;;5.97;;
22439;SDS011;11387;51.612;7.210;2023-07-24T03:13:33;11.70;;;5.75;;
22439;SDS011;11387;51.612;7.210;2023-07-24T03:16:01;15.05;;;6.03;;
22439;SDS011;11387;51.612;7.210;2023-07-24T03:18:30;9.88;;;5.75;;
22439;SDS011;11387;51.612;7.210;2023-07-24T03:21:00;13.70;;;6.05;;
22439;SDS011;11387;51.612;7.210;2023-07-24T03:23:28;14.77;;;6.55;;
22439;SDS011;11387;51.612;7.210;2023-07-24T03:25:57;8.57;;;5.57;;
22439;SDS011;11387;51.612;7.210;2023-07-24T03:28:26;13.57;;;6.15;;
22439;SDS011;11387;51.612;7.210;2023-07-24T03:30:54;13.60;;;6.68;;
22439;SDS011;11387;51.612;7.210;2023-07-24T03:33:23;13.93;;;6.47;;
22439;SDS011;11387;51.612;7.210;2023-07-24T03:35:53;16.25;;;6.82;;
22439;SDS011;11387;51.612;7.210;2023-07-24T03:38:24;12.95;;;7.03;;
22439;SDS011;11387;51.612;7.210;2023-07-24T03:40:53;13.25;;;7.50;;
22439;SDS011;11387;51.612;7.210;2023-07-24T03:43:21;14.25;;;6.50;;
22439;SDS011;11387;51.612;7.210;2023-07-24T03:45:50;13.88;;;6.55;;
22439;SDS011;11387;51.612;7.210;2023-07-24T03:48:19;17.20;;;6.88;;
22439;SDS011;11387;51.612;7.210;2023-07-24T03:50:49;13.55;;;7.93;;
22439;SDS011;11387;51.612;7.210;2023-07-24T03:53:17;12.32;;;7.00;;
22439;SDS011;11387;51.612;7.210;2023-07-24T03:55:47;16.63;;;7.90;;
22439;SDS011;11387;51.612;7.210;2023-07-24T03:58:16;17.10;;;7.40;;
22439;SDS011;11387;51.612;7.210;2023-07-24T04:00:45;18.60;;;8.23;;
22439;SDS011;11387;51.612;7.210;2023-07-24T04:03:15;18.80;;;8.55;;
22439;SDS011;11387;51.612;7.210;2023-07-24T04:05:44;15.07;;;8.18;;
22439;SDS011;11387;51.612;7.210;2023-07-24T04:08:13;20.48;;;8.80;;
22439;SDS011;11387;51.612;7.210;2023-07-24T04:10:41;18.42;;;7.93;;
22439;SDS011;11387;51.612;7.210;2023-07-24T04:13:11;16.95;;;8.15;;
22439;SDS011;11387;51.612;7.210;2023-07-24T04:15:40;17.80;;;8.68;;
22439;SDS011;11387;51.612;7.210;2023-07-24T04:18:08;23.90;;;9.63;;
22439;SDS011;11387;51.612;7.210;2023-07-24T04:20:37;18.48;;;9.60;;
22439;SDS011;11387;51.612;7.210;2023-07-24T04:23:06;22.08;;;10.43;;
22439;SDS011;11387;51.612;7.210;2023-07-24T04:25:35;19.38;;;8.32;;
22439;SDS011;11387;51.612;7.210;2023-07-24T04:28:03;23.20;;;10.63;;
22439;SDS011;11387;51.612;7.210;2023-07-24T04:30:33;18.60;;;9.05;;
22439;SDS011;11387;51.612;7.210;2023-07-24T04:33:02;26.17;;;9.63;;
22439;SDS011;11387;51.612;7.210;2023-07-24T04:35:31;17.10;;;9.63;;
22439;SDS011;11387;51.612;7.210;2023-07-24T04:37:59;23.08;;;10.25;;
22439;SDS011;11387;51.612;7.210;2023-07-24T04:40:28;19.20;;;9.25;;
22439;SDS011;11387;51.612;7.210;2023-07-24T04:42:56;17.10;;;9.07;;
22439;SDS011;11387;51.612;7.210;2023-07-24T04:45:25;18.63;;;9.30;;
22439;SDS011;11387;51.612;7.210;2023-07-24T04:48:19;25.70;;;10.73;;
22439;SDS011;11387;51.612;7.210;2023-07-24T04:50:52;22.92;;;9.98;;
22439;SDS011;11387;51.612;7.210;2023-07-24T04:53:21;16.48;;;8.73;;
22439;SDS011;11387;51.612;7.210;2023-07-24T04:55:50;22.23;;;9.25;;
22439;SDS011;11387;51.612;7.210;2023-07-24T04:58:19;19.67;;;9.43;;
22439;SDS011;11387;51.612;7.210;2023-07-24T05:00:48;20.52;;;10.63;;
22439;SDS011;11387;51.612;7.210;2023-07-24T05:03:16;17.83;;;8.65;;
22439;SDS011;11387;51.612;7.210;2023-07-24T05:05:48;16.73;;;8.85;;
22439;SDS011;11387;51.612;7.210;2023-07-24T05:08:22;16.90;;;9.00;;
22439;SDS011;11387;51.612;7.210;2023-07-24T05:10:54;17.02;;;8.50;;
22439;SDS011;11387;51.612;7.210;2023-07-24T05:13:24;20.45;;;8.73;;
22439;SDS011;11387;51.612;7.210;2023-07-24T05:15:53;24.98;;;8.43;;
22439;SDS011;11387;51.612;7.210;2023-07-24T05:18:22;23.83;;;9.85;;
22439;SDS011;11387;51.612;7.210;2023-07-24T05:20:52;19.05;;;8.63;;
22439;SDS011;11387;51.612;7.210;2023-07-24T05:23:21;14.13;;;9.85;;
22439;SDS011;11387;51.612;7.210;2023-07-24T05:25:55;23.15;;;10.27;;
22439;SDS011;11387;51.612;7.210;2023-07-24T05:28:25;19.80;;;10.02;;
22439;SDS011;11387;51.612;7.210;2023-07-24T05:30:54;20.45;;;9.75;;
22439;SDS011;11387;51.612;7.210;2023-07-24T05:33:23;19.73;;;10.13;;
22439;SDS011;11387;51.612;7.210;2023-07-24T05:35:58;19.75;;;9.75;;
22439;SDS011;11387;51.612;7.210;2023-07-24T05:38:27;19.17;;;9.68;;
22439;SDS011;11387;51.612;7.210;2023-07-24T05:40:56;20.38;;;9.55;;
22439;SDS011;11387;51.612;7.210;2023-07-24T05:43:25;20.40;;;10.05;;
22439;SDS011;11387;51.612;7.210;2023-07-24T05:45:54;19.73;;;9.75;;
22439;SDS011;11387;51.612;7.210;2023-07-24T05:48:25;23.90;;;11.52;;
22439;SDS011;11387;51.612;7.210;2023-07-24T05:50:53;21.50;;;10.18;;
22439;SDS011;11387;51.612;7.210;2023-07-24T05:53:24;26.30;;;12.05;;
22439;SDS011;11387;51.612;7.210;2023-07-24T05:55:56;26.55;;;13.10;;
22439;SDS011;11387;51.612;7.210;2023-07-24T05:58:26;22.52;;;11.48;;
22439;SDS011;11387;51.612;7.210;2023-07-24T06:00:55;22.30;;;11.65;;
22439;SDS011;11387;51.612;7.210;2023-07-24T06:03:24;16.15;;;10.07;;
22439;SDS011;11387;51.612;7.210;2023-07-24T06:06:19;17.30;;;9.95;;
22439;SDS011;11387;51.612;7.210;2023-07-24T06:08:49;16.95;;;10.05;;
22439;SDS011;11387;51.612;7.210;2023-07-24T06:11:18;16.35;;;8.98;;
22439;SDS011;11387;51.612;7.210;2023-07-24T06:13:47;25.55;;;10.90;;
22439;SDS011;11387;51.612;7.210;2023-07-24T06:16:15;18.52;;;9.95;;
22439;SDS011;11387;51.612;7.210;2023-07-24T06:18:44;18.05;;;8.90;;
22439;SDS011;11387;51.612;7.210;2023-07-24T06:21:13;23.23;;;9.45;;
22439;SDS011;11387;51.612;7.210;2023-07-24T06:23:42;15.88;;;9.63;;
22439;SDS011;11387;51.612;7.210;2023-07-24T06:26:12;18.65;;;9.00;;
22439;SDS011;11387;51.612;7.210;2023-07-24T06:28:40;17.60;;;9.55;;
22439;SDS011;11387;51.612;7.210;2023-07-24T06:31:09;17.65;;;8.93;;
22439;SDS011;11387;51.612;7.210;2023-07-24T06:33:38;12.82;;;8.13;;
22439;SDS011;11387;51.612;7.210;2023-07-24T06:36:08;15.95;;;8.27;;
22439;SDS011;11387;51.612;7.210;2023-07-24T06:38:37;19.77;;;8.85;;
22439;SDS011;11387;51.612;7.210;2023-07-24T06:41:06;15.45;;;8.38;;
22439;SDS011;11387;51.612;7.210;2023-07-24T06:43:36;19.70;;;9.00;;
22439;SDS011;11387;51.612;7.210;2023-07-24T06:46:05;15.32;;;8.48;;
22439;SDS011;11387;51.612;7.210;2023-07-24T06:48:33;16.85;;;8.70;;
22439;SDS011;11387;51.612;7.210;2023-07-24T06:51:02;18.00;;;8.55;;
22439;SDS011;11387;51.612;7.210;2023-07-24T06:53:31;17.67;;;8.25;;
22439;SDS011;11387;51.612;7.210;2023-07-24T06:56:00;15.52;;;7.70;;
22439;SDS011;11387;51.612;7.210;2023-07-24T06:58:29;16.13;;;9.15;;
22439;SDS011;11387;51.612;7.210;2023-07-24T07:00:59;23.98;;;10.52;;
22439;SDS011;11387;51.612;7.210;2023-07-24T07:03:28;14.88;;;8.70;;
22439;SDS011;11387;51.612;7.210;2023-07-24T07:05:58;17.67;;;7.97;;
22439;SDS011;11387;51.612;7.210;2023-07-24T07:08:27;22.77;;;15.20;;
22439;SDS011;11387;51.612;7.210;2023-07-24T07:10:56;12.77;;;8.13;;
22439;SDS011;11387;51.612;7.210;2023-07-24T07:13:24;80.53;;;52.03;;
22439;SDS011;11387;51.612;7.210;2023-07-24T07:15:53;13.95;;;7.95;;
22439;SDS011;11387;51.612;7.210;2023-07-24T07:18:23;12.95;;;7.82;;
22439;SDS011;11387;51.612;7.210;2023-07-24T07:20:53;12.20;;;6.68;;
22439;SDS011;11387;51.612;7.210;2023-07-24T07:23:22;11.27;;;8.05;;
22439;SDS011;11387;51.612;7.210;2023-07-24T07:25:51;14.20;;;8.68;;
22439;SDS011;11387;51.612;7.210;2023-07-24T07:28:20;13.90;;;8.18;;
22439;SDS011;11387;51.612;7.210;2023-07-24T07:30:48;17.88;;;9.65;;
22439;SDS011;11387;51.612;7.210;2023-07-24T07:33:17;17.73;;;10.23;;
22439;SDS011;11387;51.612;7.210;2023-07-24T07:35:50;15.10;;;8.75;;
22439;SDS011;11387;51.612;7.210;2023-07-24T07:38:19;12.05;;;7.35;;
22439;SDS011;11387;51.612;7.210;2023-07-24T07:40:49;12.60;;;8.90;;
22439;SDS011;11387;51.612;7.210;2023-07-24T07:43:18;11.93;;;8.27;;
22439;SDS011;11387;51.612;7.210;2023-07-24T07:45:47;13.90;;;8.30;;
22439;SDS011;11387;51.612;7.210;2023-07-24T07:48:16;10.10;;;7.30;;
22439;SDS011;11387;51.612;7.210;2023-07-24T07:50:46;14.18;;;7.70;;
22439;SDS011;11387;51.612;7.210;2023-07-24T07:53:20;14.23;;;8.23;;
22439;SDS011;11387;51.612;7.210;2023-07-24T07:55:54;11.55;;;7.78;;
22439;SDS011;11387;51.612;7.210;2023-07-24T07:58:24;10.02;;;7.80;;
22439;SDS011;11387;51.612;7.210;2023-07-24T08:00:52;13.23;;;8.75;;
22439;SDS011;11387;51.612;7.210;2023-07-24T08:03:21;12.07;;;8.77;;
22439;SDS011;11387;51.612;7.210;2023-07-24T08:05:51;15.77;;;9.85;;
22439;SDS011;11387;51.612;7.210;2023-07-24T08:08:24;14.40;;;10.73;;
22439;SDS011;11387;51.612;7.210;2023-07-24T08:10:53;14.48;;;9.68;;
22439;SDS011;11387;51.612;7.210;2023-07-24T08:13:21;12.85;;;9.75;;
22439;SDS011;11387;51.612;7.210;2023-07-24T08:15:50;16.15;;;11.07;;
22439;SDS011;11387;51.612;7.210;2023-07-24T08:18:19;12.20;;;7.38;;
22439;SDS011;11387;51.612;7.210;2023-07-24T08:20:47;7.85;;;6.05;;
22439;SDS011;11387;51.612;7.210;2023-07-24T08:23:18;6.50;;;5.15;;
22439;SDS011;11387;51.612;7.210;2023-07-24T08:25:52;11.10;;;5.50;;
22439;SDS011;11387;51.612;7.210;2023-07-24T08:28:21;6.00;;;4.18;;
22439;SDS011;11387;51.612;7.210;2023-07-24T08:30:59;5.95;;;4.32;;
22439;SDS011;11387;51.612;7.210;2023-07-24T08:33:33;7.65;;;4.57;;
22439;SDS011;11387;51.612;7.210;2023-07-24T08:36:03;8.65;;;4.22;;
22439;SDS011;11387;51.612;7.210;2023-07-24T08:38:34;11.48;;;4.40;;
22439;SDS011;11387;51.612;7.210;2023-07-24T08:41:03;9.85;;;5.55;;
22439;SDS011;11387;51.612;7.210;2023-07-24T08:43:34;10.80;;;6.72;;
22439;SDS011;11387;51.612;7.210;2023-07-24T08:46:04;8.50;;;7.57;;
22439;SDS011;11387;51.612;7.210;2023-07-24T08:48:34;9.77;;;8.18;;
22439;SDS011;11387;51.612;7.210;2023-07-24T08:51:04;14.68;;;8.68;;
22439;SDS011;11387;51.612;7.210;2023-07-24T08:53:35;11.18;;;8.38;;
22439;SDS011;11387;51.612;7.210;2023-07-24T08:56:05;9.05;;;6.20;;
22439;SDS011;11387;51.612;7.210;2023-07-24T08:58:35;9.63;;;6.88;;
22439;SDS011;11387;51.612;7.210;2023-07-24T09:01:07;13.10;;;6.68;;
22439;SDS011;11387;51.612;7.210;2023-07-24T09:03:37;6.20;;;4.40;;
22439;SDS011;11387;51.612;7.210;2023-07-24T09:06:05;8.80;;;5.32;;
22439;SDS011;11387;51.612;7.210;2023-07-24T09:08:37;5.85;;;4.47;;
22439;SDS011;11387;51.612;7.210;2023-07-24T09:11:07;6.78;;;4.30;;
22439;SDS011;11387;51.612;7.210;2023-07-24T09:13:37;9.90;;;6.10;;
22439;SDS011;11387;51.612;7.210;2023-07-24T09:16:09;6.57;;;4.50;;
22439;SDS011;11387;51.612;7.210;2023-07-24T09:18:49;9.15;;;4.53;;
22439;SDS011;11387;51.612;7.210;2023-07-24T09:21:36;4.95;;;3.80;;
22439;SDS011;11387;51.612;7.210;2023-07-24T09:24:13;6.97;;;3.95;;
22439;SDS011;11387;51.612;7.210;2023-07-24T09:26:46;5.38;;;3.53;;
22439;SDS011;11387;51.612;7.210;2023-07-24T09:29:16;5.20;;;2.90;;
22439;SDS011;11387;51.612;7.210;2023-07-24T09:31:45;4.60;;;2.78;;
22439;SDS011;11387;51.612;7.210;2023-07-24T09:34:15;4.85;;;2.70;;
22439;SDS011;11387;51.612;7.210;2023-07-24T09:36:45;4.20;;;2.58;;
22439;SDS011;11387;51.612;7.210;2023-07-24T09:39:15;4.07;;;2.10;;
22439;SDS011;11387;51.612;7.210;2023-07-24T09:41:51;5.07;;;2.50;;
22439;SDS011;11387;51.612;7.210;2023-07-24T09:44:24;3.78;;;2.00;;
22439;SDS011;11387;51.612;7.210;2023-07-24T09:46:55;3.22;;;2.30;;
22439;SDS011;11387;51.612;7.210;2023-07-24T09:49:26;3.75;;;2.33;;
22439;SDS011;11387;51.612;7.210;2023-07-24T09:51:55;8.65;;;2.58;;
22439;SDS011;11387;51.612;7.210;2023-07-24T09:54:37;6.43;;;2.45;;
22439;SDS011;11387;51.612;7.210;2023-07-24T09:57:12;5.97;;;2.58;;
22439;SDS011;11387;51.612;7.210;2023-07-24T09:59:48;5.68;;;2.97;;
22439;SDS011;11387;51.612;7.210;2023-07-24T10:02:18;5.70;;;3.13;;
22439;SDS011;11387;51.612;7.210;2023-07-24T10:04:47;8.85;;;3.50;;
22439;SDS011;11387;51.612;7.210;2023-07-24T10:07:16;10.63;;;2.78;;
22439;SDS011;11387;51.612;7.210;2023-07-24T10:09:50;5.75;;;3.53;;
22439;SDS011;11387;51.612;7.210;2023-07-24T10:12:20;7.93;;;2.92;;
22439;SDS011;11387;51.612;7.210;2023-07-24T10:14:50;5.18;;;2.90;;
22439;SDS011;11387;51.612;7.210;2023-07-24T10:17:35;6.18;;;2.90;;
22439;SDS011;11387;51.612;7.210;2023-07-24T10:20:05;5.45;;;2.65;;
22439;SDS011;11387;51.612;7.210;2023-07-24T10:22:35;4.85;;;2.40;;
22439;SDS011;11387;51.612;7.210;2023-07-24T10:25:10;4.07;;;2.67;;
22439;SDS011;11387;51.612;7.210;2023-07-24T10:27:39;5.18;;;3.17;;
22439;SDS011;11387;51.612;7.210;2023-07-24T10:30:10;9.32;;;3.90;;
22439;SDS011;11387;51.612;7.210;2023-07-24T10:33:05;7.40;;;3.55;;
22439;SDS011;11387;51.612;7.210;2023-07-24T10:35:37;5.35;;;3.67;;
22439;SDS011;11387;51.612;7.210;2023-07-24T10:38:10;6.47;;;3.08;;
22439;SDS011;11387;51.612;7.210;2023-07-24T10:40:42;9.55;;;3.85;;
22439;SDS011;11387;51.612;7.210;2023-07-24T10:43:12;4.22;;;2.97;;
22439;SDS011;11387;51.612;7.210;2023-07-24T10:45:47;4.50;;;3.08;;
22439;SDS011;11387;51.612;7.210;2023-07-24T10:48:17;6.63;;;3.33;;
22439;SDS011;11387;51.612;7.210;2023-07-24T10:50:47;5.75;;;3.35;;
22439;SDS011;11387;51.612;7.210;2023-07-24T10:53:21;9.13;;;4.00;;
22439;SDS011;11387;51.612;7.210;2023-07-24T10:55:52;5.40;;;3.20;;
22439;SDS011;11387;51.612;7.210;2023-07-24T10:58:20;7.22;;;2.95;;
22439;SDS011;11387;51.612;7.210;2023-07-24T11:00:53;4.97;;;2.97;;
22439;SDS011;11387;51.612;7.210;2023-07-24T11:03:44;8.20;;;3.42;;
22439;SDS011;11387;51.612;7.210;2023-07-24T11:06:17;3.90;;;2.75;;
22439;SDS011;11387;51.612;7.210;2023-07-24T11:08:51;6.13;;;2.85;;
22439;SDS011;11387;51.612;7.210;2023-07-24T11:11:29;8.77;;;3.20;;
22439;SDS011;11387;51.612;7.210;2023-07-24T11:14:00;4.13;;;3.10;;
22439;SDS011;11387;51.612;7.210;2023-07-24T11:16:33;6.30;;;3.47;;
22439;SDS011;11387;51.612;7.210;2023-07-24T11:19:02;4.30;;;2.90;;
22439;SDS011;11387;51.612;7.210;2023-07-24T11:21:32;8.52;;;3.33;;
22439;SDS011;11387;51.612;7.210;2023-07-24T11:24:06;7.90;;;3.95;;
22439;SDS011;11387;51.612;7.210;2023-07-24T11:26:37;6.68;;;4.30;;
22439;SDS011;11387;51.612;7.210;2023-07-24T11:29:11;9.68;;;3.80;;
22439;SDS011;11387;51.612;7.210;2023-07-24T11:31:40;10.18;;;4.82;;
22439;SDS011;11387;51.612;7.210;2023-07-24T11:34:11;7.43;;;4.55;;
22439;SDS011;11387;51.612;7.210;2023-07-24T11:36:41;7.35;;;4.95;;
22439;SDS011;11387;51.612;7.210;2023-07-24T11:39:11;4.95;;;3.85;;
22439;SDS011;11387;51.612;7.210;2023-07-24T11:41:42;11.13;;;5.03;;
22439;SDS011;11387;51.612;7.210;2023-07-24T11:44:11;8.02;;;5.22;;
22439;SDS011;11387;51.612;7.210;2023-07-24T11:46:44;11.63;;;6.35;;
22439;SDS011;11387;51.612;7.210;2023-07-24T11:49:14;12.52;;;7.25;;
22439;SDS011;11387;51.612;7.210;2023-07-24T11:51:42;13.02;;;7.65;;
22439;SDS011;11387;51.612;7.210;2023-07-24T11:54:11;10.95;;;6.43;;
22439;SDS011;11387;51.612;7.210;2023-07-24T11:56:42;10.77;;;8.32;;
22439;SDS011;11387;51.612;7.210;2023-07-24T11:59:11;9.85;;;5.82;;
22439;SDS011;11387;51.612;7.210;2023-07-24T12:01:41;10.70;;;6.45;;
22439;SDS011;11387;51.612;7.210;2023-07-24T12:04:13;7.55;;;4.70;;
22439;SDS011;11387;51.612;7.210;2023-07-24T12:06:43;13.00;;;5.93;;
22439;SDS011;11387;51.612;7.210;2023-07-24T12:09:11;11.85;;;6.47;;
22439;SDS011;11387;51.612;7.210;2023-07-24T12:11:40;6.70;;;5.25;;
22439;SDS011;11387;51.612;7.210;2023-07-24T12:14:13;9.32;;;5.22;;
22439;SDS011;11387;51.612;7.210;2023-07-24T12:16:42;7.57;;;4.45;;
22439;SDS011;11387;51.612;7.210;2023-07-24T12:19:15;9.57;;;3.53;;
22439;SDS011;11387;51.612;7.210;2023-07-24T12:21:54;5.18;;;3.22;;
22439;SDS011;11387;51.612;7.210;2023-07-24T12:24:23;4.90;;;2.65;;
22439;SDS011;11387;51.612;7.210;2023-07-24T12:26:53;8.45;;;3.30;;
22439;SDS011;11387;51.612;7.210;2023-07-24T12:29:22;5.30;;;2.38;;
22439;SDS011;11387;51.612;7.210;2023-07-24T12:31:51;4.15;;;2.53;;
22439;SDS011;11387;51.612;7.210;2023-07-24T12:34:20;4.40;;;2.03;;
22439;SDS011;11387;51.612;7.210;2023-07-24T12:36:48;3.38;;;2.50;;
22439;SDS011;11387;51.612;7.210;2023-07-24T12:39:18;5.15;;;2.58;;
22439;SDS011;11387;51.612;7.210;2023-07-24T12:41:47;4.22;;;3.25;;
22439;SDS011;11387;51.612;7.210;2023-07-24T12:44:17;4.13;;;2.75;;
22439;SDS011;11387;51.612;7.210;2023-07-24T12:46:46;5.18;;;2.70;;
22439;SDS011;11387;51.612;7.210;2023-07-24T12:49:14;5.80;;;2.83;;
22439;SDS011;11387;51.612;7.210;2023-07-24T12:51:43;6.97;;;2.60;;
22439;SDS011;11387;51.612;7.210;2023-07-24T12:54:12;5.35;;;3.00;;
22439;SDS011;11387;51.612;7.210;2023-07-24T12:56:54;3.65;;;2.13;;
22439;SDS011;11387;51.612;7.210;2023-07-24T12:59:24;3.80;;;1.80;;
22439;SDS011;11387;51.612;7.210;2023-07-24T13:01:53;2.92;;;1.80;;
22439;SDS011;11387;51.612;7.210;2023-07-24T13:04:22;3.92;;;2.15;;
22439;SDS011;11387;51.612;7.210;2023-07-24T13:06:51;6.55;;;2.35;;
22439;SDS011;11387;51.612;7.210;2023-07-24T13:09:20;4.22;;;2.22;;
22439;SDS011;11387;51.612;7.210;2023-07-24T13:11:48;4.10;;;2.35;;
22439;SDS011;11387;51.612;7.210;2023-07-24T13:14:21;4.65;;;2.33;;
22439;SDS011;11387;51.612;7.210;2023-07-24T13:16:52;2.88;;;2.00;;
22439;SDS011;11387;51.612;7.210;2023-07-24T13:19:20;4.80;;;1.90;;
22439;SDS011;11387;51.612;7.210;2023-07-24T13:21:49;3.45;;;2.25;;
22439;SDS011;11387;51.612;7.210;2023-07-24T13:24:18;5.15;;;2.45;;
22439;SDS011;11387;51.612;7.210;2023-07-24T13:26:47;4.35;;;2.60;;
22439;SDS011;11387;51.612;7.210;2023-07-24T13:29:16;4.57;;;2.97;;
22439;SDS011;11387;51.612;7.210;2023-07-24T13:31:45;3.97;;;2.78;;
22439;SDS011;11387;51.612;7.210;2023-07-24T13:34:15;4.40;;;2.33;;
22439;SDS011;11387;51.612;7.210;2023-07-24T13:36:46;5.10;;;3.35;;
22439;SDS011;11387;51.612;7.210;2023-07-24T13:39:15;4.43;;;2.97;;
22439;SDS011;11387;51.612;7.210;2023-07-24T13:41:44;4.43;;;3.00;;
22439;SDS011;11387;51.612;7.210;2023-07-24T13:44:13;4.32;;;2.63;;
22439;SDS011;11387;51.612;7.210;2023-07-24T13:46:41;7.00;;;3.10;;
22439;SDS011;11387;51.612;7.210;2023-07-24T13:49:10;8.63;;;2.88;;
22439;SDS011;11387;51.612;7.210;2023-07-24T13:54:30;4.93;;;2.67;;
22439;SDS011;11387;51.612;7.210;2023-07-24T13:56:59;5.30;;;3.38;;
22439;SDS011;11387;51.612;7.210;2023-07-24T13:59:27;6.55;;;2.80;;
22439;SDS011;11387;51.612;7.210;2023-07-24T14:01:56;6.80;;;3.33;;
22439;SDS011;11387;51.612;7.210;2023-07-24T14:04:25;7.55;;;3.33;;
22439;SDS011;11387;51.612;7.210;2023-07-24T14:07:01;5.57;;;3.58;;
22439;SDS011;11387;51.612;7.210;2023-07-24T14:09:30;5.65;;;3.72;;
22439;SDS011;11387;51.612;7.210;2023-07-24T14:11:59;7.05;;;4.25;;
22439;SDS011;11387;51.612;7.210;2023-07-24T14:14:28;5.85;;;4.22;;
22439;SDS011;11387;51.612;7.210;2023-07-24T14:16:57;5.00;;;3.75;;
22439;SDS011;11387;51.612;7.210;2023-07-24T14:19:26;5.85;;;3.35;;
22439;SDS011;11387;51.612;7.210;2023-07-24T14:21:54;9.90;;;3.90;;
22439;SDS011;11387;51.612;7.210;2023-07-24T14:24:24;4.72;;;3.42;;
22439;SDS011;11387;51.612;7.210;2023-07-24T14:26:53;5.00;;;3.30;;
22439;SDS011;11387;51.612;7.210;2023-07-24T14:29:22;6.57;;;3.28;;
22439;SDS011;11387;51.612;7.210;2023-07-24T14:31:50;4.85;;;2.83;;
22439;SDS011;11387;51.612;7.210;2023-07-24T14:34:19;4.80;;;2.90;;
22439;SDS011;11387;51.612;7.210;2023-07-24T14:36:47;5.85;;;3.20;;
22439;SDS011;11387;51.612;7.210;2023-07-24T14:39:16;4.70;;;2.90;;
22439;SDS011;11387;51.612;7.210;2023-07-24T14:41:46;4.13;;;3.28;;
22439;SDS011;11387;51.612;7.210;2023-07-24T14:44:15;4.60;;;3.00;;
22439;SDS011;11387;51.612;7.210;2023-07-24T14:46:43;5.15;;;3.33;;
22439;SDS011;11387;51.612;7.210;2023-07-24T14:49:12;5.45;;;3.20;;
22439;SDS011;11387;51.612;7.210;2023-07-24T14:51:41;4.70;;;2.95;;
22439;SDS011;11387;51.612;7.210;2023-07-24T14:54:10;7.38;;;2.80;;
22439;SDS011;11387;51.612;7.210;2023-07-24T14:56:38;5.40;;;2.47;;
22439;SDS011;11387;51.612;7.210;2023-07-24T14:59:24;6.65;;;2.63;;
22439;SDS011;11387;51.612;7.210;2023-07-24T15:01:53;4.07;;;2.60;;